Terminal Aerodrome Forecast
Issued by NWS North Platte, NE

Home | Current Version | Previous Version | Graphics & Text | Print | Product List | Glossary On
Versions: 1 2 3 4 5 6 7 8 9 10 11 12 13
000
FTUS43 KLBF 160520
TAFVTN
TAF
KVTN 160520Z 1606/1706 27006KT P6SM SCT250
     FM161200 30006KT P6SM BKN250
     FM161500 33008KT P6SM OVC250
     FM161800 36011KT P6SM BKN150
     FM170000 02007KT P6SM OVC100
     FM170500 02007KT P6SM OVC030=

USA.gov is the U.S. government's official web portal to all federal, state and local government web resources and services.